sensor_id;sensor_type;location;lat;lon;timestamp;P1;durP1;ratioP1;P2;durP2;ratioP2
22460;SDS011;11397;48.410;11.468;2024-03-02T00:00:14;1.20;;;1.20;;
22460;SDS011;11397;48.410;11.468;2024-03-02T00:05:18;1.10;;;1.10;;
22460;SDS011;11397;48.410;11.468;2024-03-02T00:10:21;1.05;;;1.05;;
22460;SDS011;11397;48.410;11.468;2024-03-02T00:15:41;1.00;;;1.00;;
22460;SDS011;11397;48.410;11.468;2024-03-02T00:20:45;1.20;;;1.20;;
22460;SDS011;11397;48.410;11.468;2024-03-02T00:25:47;1.23;;;1.23;;
22460;SDS011;11397;48.410;11.468;2024-03-02T00:30:59;1.20;;;1.20;;
22460;SDS011;11397;48.410;11.468;2024-03-02T00:36:02;1.20;;;1.20;;
22460;SDS011;11397;48.410;11.468;2024-03-02T00:41:05;1.00;;;1.00;;
22460;SDS011;11397;48.410;11.468;2024-03-02T00:46:07;1.00;;;1.00;;
22460;SDS011;11397;48.410;11.468;2024-03-02T00:51:11;1.10;;;1.10;;
22460;SDS011;11397;48.410;11.468;2024-03-02T00:56:13;1.05;;;1.05;;
22460;SDS011;11397;48.410;11.468;2024-03-02T01:01:15;1.00;;;1.00;;
22460;SDS011;11397;48.410;11.468;2024-03-02T01:06:19;1.00;;;1.00;;
22460;SDS011;11397;48.410;11.468;2024-03-02T01:11:20;1.20;;;1.20;;
22460;SDS011;11397;48.410;11.468;2024-03-02T01:16:23;1.10;;;1.10;;
22460;SDS011;11397;48.410;11.468;2024-03-02T01:21:26;1.00;;;1.00;;
22460;SDS011;11397;48.410;11.468;2024-03-02T01:26:29;1.08;;;1.08;;
22460;SDS011;11397;48.410;11.468;2024-03-02T01:31:31;0.90;;;0.90;;
22460;SDS011;11397;48.410;11.468;2024-03-02T01:36:34;1.10;;;1.10;;
22460;SDS011;11397;48.410;11.468;2024-03-02T01:41:36;0.95;;;0.95;;
22460;SDS011;11397;48.410;11.468;2024-03-02T01:46:38;1.30;;;1.30;;
22460;SDS011;11397;48.410;11.468;2024-03-02T01:51:41;1.00;;;1.00;;
22460;SDS011;11397;48.410;11.468;2024-03-02T01:56:43;1.17;;;1.17;;
22460;SDS011;11397;48.410;11.468;2024-03-02T02:01:45;1.10;;;1.10;;
22460;SDS011;11397;48.410;11.468;2024-03-02T02:06:50;1.10;;;1.10;;
22460;SDS011;11397;48.410;11.468;2024-03-02T02:11:52;1.10;;;1.10;;
22460;SDS011;11397;48.410;11.468;2024-03-02T02:16:54;1.00;;;1.00;;
22460;SDS011;11397;48.410;11.468;2024-03-02T02:21:57;1.05;;;1.05;;
22460;SDS011;11397;48.410;11.468;2024-03-02T02:26:59;1.13;;;1.13;;
22460;SDS011;11397;48.410;11.468;2024-03-02T02:32:00;1.10;;;1.10;;
22460;SDS011;11397;48.410;11.468;2024-03-02T02:37:04;1.30;;;1.30;;
22460;SDS011;11397;48.410;11.468;2024-03-02T02:42:06;1.00;;;1.00;;
22460;SDS011;11397;48.410;11.468;2024-03-02T02:47:08;1.00;;;1.00;;
22460;SDS011;11397;48.410;11.468;2024-03-02T02:52:11;1.20;;;1.20;;
22460;SDS011;11397;48.410;11.468;2024-03-02T02:57:13;1.10;;;1.10;;
22460;SDS011;11397;48.410;11.468;2024-03-02T03:02:15;1.10;;;1.10;;
22460;SDS011;11397;48.410;11.468;2024-03-02T03:07:18;1.02;;;1.02;;
22460;SDS011;11397;48.410;11.468;2024-03-02T03:12:20;1.10;;;1.10;;
22460;SDS011;11397;48.410;11.468;2024-03-02T03:17:22;1.00;;;1.00;;
22460;SDS011;11397;48.410;11.468;2024-03-02T03:22:25;1.00;;;1.00;;
22460;SDS011;11397;48.410;11.468;2024-03-02T03:27:27;1.10;;;1.10;;
22460;SDS011;11397;48.410;11.468;2024-03-02T03:32:29;1.15;;;1.15;;
22460;SDS011;11397;48.410;11.468;2024-03-02T03:37:32;1.10;;;1.10;;
22460;SDS011;11397;48.410;11.468;2024-03-02T03:42:36;1.02;;;1.02;;
22460;SDS011;11397;48.410;11.468;2024-03-02T03:47:38;1.10;;;1.10;;
22460;SDS011;11397;48.410;11.468;2024-03-02T03:52:41;1.00;;;1.00;;
22460;SDS011;11397;48.410;11.468;2024-03-02T03:57:43;0.93;;;0.93;;
22460;SDS011;11397;48.410;11.468;2024-03-02T04:02:44;1.05;;;1.05;;
22460;SDS011;11397;48.410;11.468;2024-03-02T04:07:48;1.08;;;1.08;;
22460;SDS011;11397;48.410;11.468;2024-03-02T04:12:50;1.10;;;1.10;;
22460;SDS011;11397;48.410;11.468;2024-03-02T04:17:52;1.20;;;1.20;;
22460;SDS011;11397;48.410;11.468;2024-03-02T04:22:55;0.90;;;0.90;;
22460;SDS011;11397;48.410;11.468;2024-03-02T04:27:57;0.82;;;0.82;;
22460;SDS011;11397;48.410;11.468;2024-03-02T04:32:59;1.00;;;1.00;;
22460;SDS011;11397;48.410;11.468;2024-03-02T04:38:04;1.08;;;1.08;;
22460;SDS011;11397;48.410;11.468;2024-03-02T04:43:06;1.00;;;1.00;;
22460;SDS011;11397;48.410;11.468;2024-03-02T04:48:09;1.20;;;1.20;;
22460;SDS011;11397;48.410;11.468;2024-03-02T04:53:13;1.17;;;1.17;;
22460;SDS011;11397;48.410;11.468;2024-03-02T04:58:15;1.00;;;1.00;;
22460;SDS011;11397;48.410;11.468;2024-03-02T05:03:18;1.13;;;1.13;;
22460;SDS011;11397;48.410;11.468;2024-03-02T05:08:21;1.10;;;1.10;;
22460;SDS011;11397;48.410;11.468;2024-03-02T05:13:23;1.08;;;1.08;;
22460;SDS011;11397;48.410;11.468;2024-03-02T05:18:24;1.20;;;1.20;;
22460;SDS011;11397;48.410;11.468;2024-03-02T05:23:27;1.20;;;1.20;;
22460;SDS011;11397;48.410;11.468;2024-03-02T05:28:29;0.98;;;0.98;;
22460;SDS011;11397;48.410;11.468;2024-03-02T05:33:31;1.13;;;1.13;;
22460;SDS011;11397;48.410;11.468;2024-03-02T05:38:35;1.08;;;1.08;;
22460;SDS011;11397;48.410;11.468;2024-03-02T05:43:37;1.00;;;1.00;;
22460;SDS011;11397;48.410;11.468;2024-03-02T05:48:39;1.15;;;1.15;;
22460;SDS011;11397;48.410;11.468;2024-03-02T05:53:42;0.98;;;0.98;;
22460;SDS011;11397;48.410;11.468;2024-03-02T05:58:44;1.00;;;1.00;;
22460;SDS011;11397;48.410;11.468;2024-03-02T06:03:58;1.00;;;1.00;;
22460;SDS011;11397;48.410;11.468;2024-03-02T06:09:01;0.90;;;0.90;;
22460;SDS011;11397;48.410;11.468;2024-03-02T06:14:07;1.00;;;1.00;;
22460;SDS011;11397;48.410;11.468;2024-03-02T06:19:09;0.90;;;0.90;;
22460;SDS011;11397;48.410;11.468;2024-03-02T06:24:12;1.00;;;1.00;;
22460;SDS011;11397;48.410;11.468;2024-03-02T06:29:14;0.80;;;0.80;;
22460;SDS011;11397;48.410;11.468;2024-03-02T06:34:17;1.08;;;1.08;;
22460;SDS011;11397;48.410;11.468;2024-03-02T06:39:21;1.00;;;1.00;;
22460;SDS011;11397;48.410;11.468;2024-03-02T06:44:23;0.98;;;0.98;;
22460;SDS011;11397;48.410;11.468;2024-03-02T06:49:24;0.82;;;0.82;;
22460;SDS011;11397;48.410;11.468;2024-03-02T06:54:28;0.90;;;0.90;;
22460;SDS011;11397;48.410;11.468;2024-03-02T06:59:29;0.90;;;0.90;;
22460;SDS011;11397;48.410;11.468;2024-03-02T07:04:31;1.00;;;1.00;;
22460;SDS011;11397;48.410;11.468;2024-03-02T07:09:35;0.93;;;0.93;;
22460;SDS011;11397;48.410;11.468;2024-03-02T07:14:37;1.00;;;1.00;;
22460;SDS011;11397;48.410;11.468;2024-03-02T07:20:11;1.00;;;1.00;;
22460;SDS011;11397;48.410;11.468;2024-03-02T07:25:15;1.00;;;1.00;;
22460;SDS011;11397;48.410;11.468;2024-03-02T07:30:16;0.90;;;0.90;;
22460;SDS011;11397;48.410;11.468;2024-03-02T07:35:18;1.10;;;1.10;;
22460;SDS011;11397;48.410;11.468;2024-03-02T07:40:22;1.00;;;1.00;;
22460;SDS011;11397;48.410;11.468;2024-03-02T07:45:23;0.90;;;0.90;;
22460;SDS011;11397;48.410;11.468;2024-03-02T07:50:26;0.70;;;0.70;;
22460;SDS011;11397;48.410;11.468;2024-03-02T07:55:29;0.80;;;0.80;;
22460;SDS011;11397;48.410;11.468;2024-03-02T08:00:31;0.90;;;0.90;;
22460;SDS011;11397;48.410;11.468;2024-03-02T08:05:33;1.00;;;1.00;;
22460;SDS011;11397;48.410;11.468;2024-03-02T08:10:38;1.00;;;1.00;;
22460;SDS011;11397;48.410;11.468;2024-03-02T08:15:40;1.00;;;1.00;;
22460;SDS011;11397;48.410;11.468;2024-03-02T08:20:42;1.10;;;1.10;;
22460;SDS011;11397;48.410;11.468;2024-03-02T08:25:46;1.10;;;1.10;;
22460;SDS011;11397;48.410;11.468;2024-03-02T08:30:50;1.00;;;1.00;;
22460;SDS011;11397;48.410;11.468;2024-03-02T08:35:54;1.10;;;1.10;;
22460;SDS011;11397;48.410;11.468;2024-03-02T08:40:58;1.05;;;1.05;;
22460;SDS011;11397;48.410;11.468;2024-03-02T08:46:00;1.00;;;1.00;;
22460;SDS011;11397;48.410;11.468;2024-03-02T08:51:02;1.13;;;1.13;;
22460;SDS011;11397;48.410;11.468;2024-03-02T08:56:07;1.20;;;1.20;;
22460;SDS011;11397;48.410;11.468;2024-03-02T09:01:09;1.00;;;1.00;;
22460;SDS011;11397;48.410;11.468;2024-03-02T09:06:12;1.10;;;1.10;;
22460;SDS011;11397;48.410;11.468;2024-03-02T09:11:15;1.10;;;1.10;;
22460;SDS011;11397;48.410;11.468;2024-03-02T09:16:17;1.00;;;1.00;;
22460;SDS011;11397;48.410;11.468;2024-03-02T09:21:18;1.10;;;1.10;;
22460;SDS011;11397;48.410;11.468;2024-03-02T09:26:22;1.08;;;1.08;;
22460;SDS011;11397;48.410;11.468;2024-03-02T09:31:25;1.27;;;1.27;;
22460;SDS011;11397;48.410;11.468;2024-03-02T09:36:28;1.10;;;1.10;;
22460;SDS011;11397;48.410;11.468;2024-03-02T09:41:31;0.90;;;0.90;;
22460;SDS011;11397;48.410;11.468;2024-03-02T09:46:34;1.42;;;1.40;;
22460;SDS011;11397;48.410;11.468;2024-03-02T09:51:37;1.00;;;1.00;;
22460;SDS011;11397;48.410;11.468;2024-03-02T09:56:40;1.10;;;1.10;;
22460;SDS011;11397;48.410;11.468;2024-03-02T10:01:54;1.00;;;1.00;;
22460;SDS011;11397;48.410;11.468;2024-03-02T10:07:12;0.98;;;0.98;;
22460;SDS011;11397;48.410;11.468;2024-03-02T10:12:16;0.80;;;0.80;;
22460;SDS011;11397;48.410;11.468;2024-03-02T10:17:18;1.33;;;1.20;;
22460;SDS011;11397;48.410;11.468;2024-03-02T10:22:20;1.08;;;1.08;;
22460;SDS011;11397;48.410;11.468;2024-03-02T10:27:26;0.98;;;0.98;;
22460;SDS011;11397;48.410;11.468;2024-03-02T10:32:29;1.17;;;1.17;;
22460;SDS011;11397;48.410;11.468;2024-03-02T10:37:31;0.95;;;0.95;;
22460;SDS011;11397;48.410;11.468;2024-03-02T10:42:37;0.90;;;0.90;;
22460;SDS011;11397;48.410;11.468;2024-03-02T10:47:39;1.20;;;1.20;;
22460;SDS011;11397;48.410;11.468;2024-03-02T10:52:42;1.00;;;1.00;;
22460;SDS011;11397;48.410;11.468;2024-03-02T10:57:50;0.90;;;0.90;;
22460;SDS011;11397;48.410;11.468;2024-03-02T11:02:52;1.10;;;1.10;;
22460;SDS011;11397;48.410;11.468;2024-03-02T11:08:00;1.20;;;1.20;;
22460;SDS011;11397;48.410;11.468;2024-03-02T11:13:08;1.10;;;1.10;;
22460;SDS011;11397;48.410;11.468;2024-03-02T11:18:13;1.05;;;1.05;;
22460;SDS011;11397;48.410;11.468;2024-03-02T11:23:15;1.10;;;1.10;;
22460;SDS011;11397;48.410;11.468;2024-03-02T11:28:18;1.20;;;1.20;;
22460;SDS011;11397;48.410;11.468;2024-03-02T11:33:35;1.00;;;1.00;;
22460;SDS011;11397;48.410;11.468;2024-03-02T11:38:37;1.30;;;1.30;;
22460;SDS011;11397;48.410;11.468;2024-03-02T11:43:40;1.25;;;1.25;;
22460;SDS011;11397;48.410;11.468;2024-03-02T11:48:44;1.08;;;1.08;;
22460;SDS011;11397;48.410;11.468;2024-03-02T11:53:48;1.10;;;1.10;;
22460;SDS011;11397;48.410;11.468;2024-03-02T11:58:53;1.13;;;1.13;;
22460;SDS011;11397;48.410;11.468;2024-03-02T12:03:55;1.10;;;1.10;;
22460;SDS011;11397;48.410;11.468;2024-03-02T12:08:57;1.20;;;1.20;;
22460;SDS011;11397;48.410;11.468;2024-03-02T12:14:11;1.10;;;1.10;;
22460;SDS011;11397;48.410;11.468;2024-03-02T12:19:14;1.02;;;1.02;;
22460;SDS011;11397;48.410;11.468;2024-03-02T12:24:18;1.10;;;1.10;;
22460;SDS011;11397;48.410;11.468;2024-03-02T12:29:21;1.20;;;1.20;;
22460;SDS011;11397;48.410;11.468;2024-03-02T12:34:26;1.33;;;1.33;;
22460;SDS011;11397;48.410;11.468;2024-03-02T12:39:28;1.40;;;1.40;;
22460;SDS011;11397;48.410;11.468;2024-03-02T12:44:33;1.50;;;1.50;;
22460;SDS011;11397;48.410;11.468;2024-03-02T12:49:35;1.40;;;1.40;;
22460;SDS011;11397;48.410;11.468;2024-03-02T12:54:37;1.50;;;1.50;;
22460;SDS011;11397;48.410;11.468;2024-03-02T12:59:40;1.48;;;1.48;;
22460;SDS011;11397;48.410;11.468;2024-03-02T13:04:52;1.40;;;1.40;;
22460;SDS011;11397;48.410;11.468;2024-03-02T13:09:54;1.25;;;1.25;;
22460;SDS011;11397;48.410;11.468;2024-03-02T13:14:58;1.40;;;1.40;;
22460;SDS011;11397;48.410;11.468;2024-03-02T13:20:00;1.42;;;1.42;;
22460;SDS011;11397;48.410;11.468;2024-03-02T13:25:05;1.30;;;1.30;;
22460;SDS011;11397;48.410;11.468;2024-03-02T13:30:10;1.60;;;1.60;;
22460;SDS011;11397;48.410;11.468;2024-03-02T13:35:12;1.50;;;1.50;;
22460;SDS011;11397;48.410;11.468;2024-03-02T13:40:14;1.33;;;1.33;;
22460;SDS011;11397;48.410;11.468;2024-03-02T13:45:21;1.67;;;1.67;;
22460;SDS011;11397;48.410;11.468;2024-03-02T13:50:23;1.20;;;1.20;;
22460;SDS011;11397;48.410;11.468;2024-03-02T13:55:28;1.10;;;1.10;;
22460;SDS011;11397;48.410;11.468;2024-03-02T14:00:33;1.40;;;1.40;;
22460;SDS011;11397;48.410;11.468;2024-03-02T14:05:35;1.50;;;1.50;;
22460;SDS011;11397;48.410;11.468;2024-03-02T14:10:37;1.40;;;1.40;;
22460;SDS011;11397;48.410;11.468;2024-03-02T14:15:40;1.48;;;1.48;;
22460;SDS011;11397;48.410;11.468;2024-03-02T14:20:42;1.30;;;1.30;;
22460;SDS011;11397;48.410;11.468;2024-03-02T14:25:47;1.40;;;1.40;;
22460;SDS011;11397;48.410;11.468;2024-03-02T14:30:50;1.23;;;1.23;;
22460;SDS011;11397;48.410;11.468;2024-03-02T14:35:52;1.60;;;1.60;;
22460;SDS011;11397;48.410;11.468;2024-03-02T14:40:54;1.50;;;1.50;;
22460;SDS011;11397;48.410;11.468;2024-03-02T14:45:57;1.40;;;1.40;;
22460;SDS011;11397;48.410;11.468;2024-03-02T14:50:59;1.50;;;1.50;;
22460;SDS011;11397;48.410;11.468;2024-03-02T14:56:02;1.42;;;1.42;;
22460;SDS011;11397;48.410;11.468;2024-03-02T15:01:06;1.70;;;1.70;;
22460;SDS011;11397;48.410;11.468;2024-03-02T15:06:09;1.40;;;1.40;;
22460;SDS011;11397;48.410;11.468;2024-03-02T15:11:11;1.45;;;1.45;;
22460;SDS011;11397;48.410;11.468;2024-03-02T15:16:14;1.40;;;1.40;;
22460;SDS011;11397;48.410;11.468;2024-03-02T15:21:16;1.60;;;1.60;;
22460;SDS011;11397;48.410;11.468;2024-03-02T15:26:19;1.50;;;1.50;;
22460;SDS011;11397;48.410;11.468;2024-03-02T15:31:22;1.45;;;1.45;;
22460;SDS011;11397;48.410;11.468;2024-03-02T15:36:24;1.67;;;1.67;;
22460;SDS011;11397;48.410;11.468;2024-03-02T15:41:26;1.25;;;1.25;;
22460;SDS011;11397;48.410;11.468;2024-03-02T15:46:29;1.25;;;1.25;;
22460;SDS011;11397;48.410;11.468;2024-03-02T15:51:31;1.10;;;1.10;;
22460;SDS011;11397;48.410;11.468;2024-03-02T15:56:33;1.40;;;1.40;;
22460;SDS011;11397;48.410;11.468;2024-03-02T16:01:36;1.20;;;1.20;;
22460;SDS011;11397;48.410;11.468;2024-03-02T16:06:38;1.40;;;1.40;;
22460;SDS011;11397;48.410;11.468;2024-03-02T16:11:40;1.40;;;1.40;;
22460;SDS011;11397;48.410;11.468;2024-03-02T16:16:44;1.50;;;1.50;;
22460;SDS011;11397;48.410;11.468;2024-03-02T16:21:46;1.30;;;1.30;;
22460;SDS011;11397;48.410;11.468;2024-03-02T16:26:47;1.10;;;1.10;;
22460;SDS011;11397;48.410;11.468;2024-03-02T16:31:50;1.25;;;1.25;;
22460;SDS011;11397;48.410;11.468;2024-03-02T16:36:52;1.20;;;1.20;;
22460;SDS011;11397;48.410;11.468;2024-03-02T16:41:54;1.30;;;1.30;;
22460;SDS011;11397;48.410;11.468;2024-03-02T16:46:58;1.40;;;1.40;;
22460;SDS011;11397;48.410;11.468;2024-03-02T16:51:59;1.30;;;1.30;;
22460;SDS011;11397;48.410;11.468;2024-03-02T16:57:01;1.10;;;1.10;;
22460;SDS011;11397;48.410;11.468;2024-03-02T17:02:05;1.20;;;1.20;;
22460;SDS011;11397;48.410;11.468;2024-03-02T17:07:06;1.10;;;1.10;;
22460;SDS011;11397;48.410;11.468;2024-03-02T17:12:08;1.20;;;1.20;;
22460;SDS011;11397;48.410;11.468;2024-03-02T17:17:11;1.27;;;1.27;;
22460;SDS011;11397;48.410;11.468;2024-03-02T17:22:14;1.20;;;1.20;;
22460;SDS011;11397;48.410;11.468;2024-03-02T17:27:16;1.20;;;1.20;;
22460;SDS011;11397;48.410;11.468;2024-03-02T17:32:20;0.98;;;0.98;;
22460;SDS011;11397;48.410;11.468;2024-03-02T17:37:22;1.08;;;1.08;;
22460;SDS011;11397;48.410;11.468;2024-03-02T17:42:23;1.10;;;1.10;;
22460;SDS011;11397;48.410;11.468;2024-03-02T17:47:27;1.20;;;1.20;;
22460;SDS011;11397;48.410;11.468;2024-03-02T17:52:29;1.13;;;1.13;;
22460;SDS011;11397;48.410;11.468;2024-03-02T17:57:31;1.20;;;1.20;;
22460;SDS011;11397;48.410;11.468;2024-03-02T18:02:34;1.20;;;1.20;;
22460;SDS011;11397;48.410;11.468;2024-03-02T18:07:35;1.15;;;1.15;;
22460;SDS011;11397;48.410;11.468;2024-03-02T18:12:37;1.30;;;1.30;;
22460;SDS011;11397;48.410;11.468;2024-03-02T18:17:41;1.30;;;1.30;;
22460;SDS011;11397;48.410;11.468;2024-03-02T18:22:43;1.13;;;1.13;;
22460;SDS011;11397;48.410;11.468;2024-03-02T18:27:48;1.10;;;1.10;;
22460;SDS011;11397;48.410;11.468;2024-03-02T18:32:51;1.10;;;1.10;;
22460;SDS011;11397;48.410;11.468;2024-03-02T18:37:53;1.35;;;1.35;;
22460;SDS011;11397;48.410;11.468;2024-03-02T18:42:55;1.30;;;1.30;;
22460;SDS011;11397;48.410;11.468;2024-03-02T18:48:00;1.10;;;1.10;;
22460;SDS011;11397;48.410;11.468;2024-03-02T18:53:03;1.20;;;1.20;;
22460;SDS011;11397;48.410;11.468;2024-03-02T18:58:06;1.17;;;1.17;;
22460;SDS011;11397;48.410;11.468;2024-03-02T19:03:09;1.17;;;1.17;;
22460;SDS011;11397;48.410;11.468;2024-03-02T19:08:11;1.20;;;1.20;;
22460;SDS011;11397;48.410;11.468;2024-03-02T19:13:18;1.10;;;1.10;;
22460;SDS011;11397;48.410;11.468;2024-03-02T19:18:21;1.05;;;1.05;;
22460;SDS011;11397;48.410;11.468;2024-03-02T19:23:23;0.95;;;0.95;;
22460;SDS011;11397;48.410;11.468;2024-03-02T19:28:28;1.02;;;1.02;;
22460;SDS011;11397;48.410;11.468;2024-03-02T19:33:31;1.17;;;1.17;;
22460;SDS011;11397;48.410;11.468;2024-03-02T19:38:32;1.10;;;1.10;;
22460;SDS011;11397;48.410;11.468;2024-03-02T19:43:35;1.25;;;1.25;;
22460;SDS011;11397;48.410;11.468;2024-03-02T19:48:38;1.15;;;1.15;;
22460;SDS011;11397;48.410;11.468;2024-03-02T19:53:40;1.30;;;1.30;;
22460;SDS011;11397;48.410;11.468;2024-03-02T19:58:42;1.23;;;1.23;;
22460;SDS011;11397;48.410;11.468;2024-03-02T20:03:45;1.20;;;1.20;;
22460;SDS011;11397;48.410;11.468;2024-03-02T20:08:50;1.00;;;1.00;;
22460;SDS011;11397;48.410;11.468;2024-03-02T20:13:51;1.10;;;1.10;;
22460;SDS011;11397;48.410;11.468;2024-03-02T20:18:54;1.25;;;1.25;;
22460;SDS011;11397;48.410;11.468;2024-03-02T20:23:56;1.02;;;1.02;;
22460;SDS011;11397;48.410;11.468;2024-03-02T20:28:58;1.15;;;1.15;;
22460;SDS011;11397;48.410;11.468;2024-03-02T20:34:01;1.10;;;1.10;;
22460;SDS011;11397;48.410;11.468;2024-03-02T20:39:02;1.00;;;1.00;;
22460;SDS011;11397;48.410;11.468;2024-03-02T20:44:05;1.05;;;1.05;;
22460;SDS011;11397;48.410;11.468;2024-03-02T20:49:08;1.17;;;1.17;;
22460;SDS011;11397;48.410;11.468;2024-03-02T20:54:10;1.08;;;1.08;;
22460;SDS011;11397;48.410;11.468;2024-03-02T20:59:11;1.10;;;1.10;;
22460;SDS011;11397;48.410;11.468;2024-03-02T21:04:15;1.10;;;1.10;;
22460;SDS011;11397;48.410;11.468;2024-03-02T21:09:16;1.00;;;1.00;;
22460;SDS011;11397;48.410;11.468;2024-03-02T21:14:18;1.00;;;1.00;;
22460;SDS011;11397;48.410;11.468;2024-03-02T21:19:21;1.10;;;1.10;;
22460;SDS011;11397;48.410;11.468;2024-03-02T21:24:23;1.20;;;1.20;;
22460;SDS011;11397;48.410;11.468;2024-03-02T21:29:25;1.00;;;1.00;;
22460;SDS011;11397;48.410;11.468;2024-03-02T21:34:29;1.00;;;1.00;;
22460;SDS011;11397;48.410;11.468;2024-03-02T21:39:31;1.20;;;1.20;;
22460;SDS011;11397;48.410;11.468;2024-03-02T21:44:33;1.10;;;1.10;;
22460;SDS011;11397;48.410;11.468;2024-03-02T21:49:36;1.08;;;1.08;;
22460;SDS011;11397;48.410;11.468;2024-03-02T21:54:38;1.10;;;1.10;;
22460;SDS011;11397;48.410;11.468;2024-03-02T21:59:39;1.10;;;1.10;;
22460;SDS011;11397;48.410;11.468;2024-03-02T22:04:43;1.15;;;1.15;;
22460;SDS011;11397;48.410;11.468;2024-03-02T22:09:45;1.20;;;1.20;;
22460;SDS011;11397;48.410;11.468;2024-03-02T22:14:46;1.10;;;1.10;;
22460;SDS011;11397;48.410;11.468;2024-03-02T22:19:50;1.10;;;1.10;;
22460;SDS011;11397;48.410;11.468;2024-03-02T22:24:52;1.20;;;1.20;;
22460;SDS011;11397;48.410;11.468;2024-03-02T22:29:54;1.02;;;1.02;;
22460;SDS011;11397;48.410;11.468;2024-03-02T22:34:57;1.10;;;1.10;;
22460;SDS011;11397;48.410;11.468;2024-03-02T22:39:58;1.08;;;1.08;;
22460;SDS011;11397;48.410;11.468;2024-03-02T22:45:00;1.10;;;1.10;;
22460;SDS011;11397;48.410;11.468;2024-03-02T22:50:04;1.10;;;1.10;;
22460;SDS011;11397;48.410;11.468;2024-03-02T22:55:06;1.13;;;1.13;;
22460;SDS011;11397;48.410;11.468;2024-03-02T23:00:08;1.10;;;1.10;;
22460;SDS011;11397;48.410;11.468;2024-03-02T23:05:59;0.98;;;0.98;;
22460;SDS011;11397;48.410;11.468;2024-03-02T23:11:01;1.08;;;1.08;;
22460;SDS011;11397;48.410;11.468;2024-03-02T23:16:03;1.10;;;1.10;;
22460;SDS011;11397;48.410;11.468;2024-03-02T23:21:07;1.00;;;1.00;;
22460;SDS011;11397;48.410;11.468;2024-03-02T23:26:08;0.82;;;0.82;;
22460;SDS011;11397;48.410;11.468;2024-03-02T23:31:10;0.80;;;0.80;;
22460;SDS011;11397;48.410;11.468;2024-03-02T23:36:17;0.90;;;0.90;;
22460;SDS011;11397;48.410;11.468;2024-03-02T23:41:18;1.30;;;1.30;;
22460;SDS011;11397;48.410;11.468;2024-03-02T23:46:21;0.90;;;0.90;;
22460;SDS011;11397;48.410;11.468;2024-03-02T23:51:25;0.73;;;0.73;;
22460;SDS011;11397;48.410;11.468;2024-03-02T23:56:26;1.95;;;1.20;;
